sensor_id;sensor_type;location;lat;lon;timestamp;P1;durP1;ratioP1;P2;durP2;ratioP2
17650;SDS011;26663;59.302;18.082;2024-01-15T00:01:54;0.97;;;0.90;;
17650;SDS011;26663;59.302;18.082;2024-01-15T00:04:59;0.73;;;0.73;;
17650;SDS011;26663;59.302;18.082;2024-01-15T00:08:03;2.33;;;1.00;;
17650;SDS011;26663;59.302;18.082;2024-01-15T00:11:08;1.10;;;1.00;;
17650;SDS011;26663;59.302;18.082;2024-01-15T00:14:12;1.00;;;1.00;;
17650;SDS011;26663;59.302;18.082;2024-01-15T00:17:17;1.10;;;1.10;;
17650;SDS011;26663;59.302;18.082;2024-01-15T00:20:22;1.93;;;1.00;;
17650;SDS011;26663;59.302;18.082;2024-01-15T00:23:29;1.00;;;1.00;;
17650;SDS011;26663;59.302;18.082;2024-01-15T00:26:33;0.90;;;0.90;;
17650;SDS011;26663;59.302;18.082;2024-01-15T00:29:37;1.00;;;1.00;;
17650;SDS011;26663;59.302;18.082;2024-01-15T00:32:41;1.10;;;1.10;;
17650;SDS011;26663;59.302;18.082;2024-01-15T00:35:46;1.73;;;0.93;;
17650;SDS011;26663;59.302;18.082;2024-01-15T00:38:51;0.90;;;0.90;;
17650;SDS011;26663;59.302;18.082;2024-01-15T00:41:55;0.90;;;0.90;;
17650;SDS011;26663;59.302;18.082;2024-01-15T00:44:59;1.00;;;1.00;;
17650;SDS011;26663;59.302;18.082;2024-01-15T00:48:03;1.10;;;1.10;;
17650;SDS011;26663;59.302;18.082;2024-01-15T00:51:09;0.90;;;0.90;;
17650;SDS011;26663;59.302;18.082;2024-01-15T00:54:13;2.33;;;0.97;;
17650;SDS011;26663;59.302;18.082;2024-01-15T00:57:17;1.10;;;1.10;;
17650;SDS011;26663;59.302;18.082;2024-01-15T01:00:21;1.00;;;1.00;;
17650;SDS011;26663;59.302;18.082;2024-01-15T01:03:25;1.00;;;1.00;;
17650;SDS011;26663;59.302;18.082;2024-01-15T01:06:31;1.00;;;1.00;;
17650;SDS011;26663;59.302;18.082;2024-01-15T01:09:35;0.97;;;0.97;;
17650;SDS011;26663;59.302;18.082;2024-01-15T01:12:39;1.10;;;1.00;;
17650;SDS011;26663;59.302;18.082;2024-01-15T01:15:43;4.80;;;1.20;;
17650;SDS011;26663;59.302;18.082;2024-01-15T01:18:47;1.80;;;1.00;;
17650;SDS011;26663;59.302;18.082;2024-01-15T01:21:53;1.60;;;0.90;;
17650;SDS011;26663;59.302;18.082;2024-01-15T01:24:57;0.80;;;0.80;;
17650;SDS011;26663;59.302;18.082;2024-01-15T01:28:01;2.53;;;0.97;;
17650;SDS011;26663;59.302;18.082;2024-01-15T01:31:05;2.17;;;1.20;;
17650;SDS011;26663;59.302;18.082;2024-01-15T01:34:10;1.17;;;0.80;;
17650;SDS011;26663;59.302;18.082;2024-01-15T01:37:18;0.90;;;0.90;;
17650;SDS011;26663;59.302;18.082;2024-01-15T01:40:22;0.90;;;0.90;;
17650;SDS011;26663;59.302;18.082;2024-01-15T01:43:26;0.83;;;0.83;;
17650;SDS011;26663;59.302;18.082;2024-01-15T01:46:30;1.73;;;0.97;;
17650;SDS011;26663;59.302;18.082;2024-01-15T01:49:35;0.90;;;0.90;;
17650;SDS011;26663;59.302;18.082;2024-01-15T01:52:42;2.23;;;0.90;;
17650;SDS011;26663;59.302;18.082;2024-01-15T01:55:46;1.33;;;0.90;;
17650;SDS011;26663;59.302;18.082;2024-01-15T01:58:50;0.97;;;0.90;;
17650;SDS011;26663;59.302;18.082;2024-01-15T02:01:54;1.00;;;0.93;;
17650;SDS011;26663;59.302;18.082;2024-01-15T02:04:58;3.10;;;1.00;;
17650;SDS011;26663;59.302;18.082;2024-01-15T02:08:04;1.00;;;1.00;;
17650;SDS011;26663;59.302;18.082;2024-01-15T02:11:08;0.97;;;0.97;;
17650;SDS011;26663;59.302;18.082;2024-01-15T02:14:12;1.90;;;0.90;;
17650;SDS011;26663;59.302;18.082;2024-01-15T02:17:16;0.90;;;0.90;;
17650;SDS011;26663;59.302;18.082;2024-01-15T02:20:20;1.40;;;1.10;;
17650;SDS011;26663;59.302;18.082;2024-01-15T02:23:25;0.93;;;0.93;;
17650;SDS011;26663;59.302;18.082;2024-01-15T02:26:30;1.00;;;1.00;;
17650;SDS011;26663;59.302;18.082;2024-01-15T02:29:38;3.30;;;1.00;;
17650;SDS011;26663;59.302;18.082;2024-01-15T02:32:42;1.07;;;1.07;;
17650;SDS011;26663;59.302;18.082;2024-01-15T02:35:46;1.00;;;1.00;;
17650;SDS011;26663;59.302;18.082;2024-01-15T02:38:53;1.00;;;1.00;;
17650;SDS011;26663;59.302;18.082;2024-01-15T02:41:57;1.30;;;1.30;;
17650;SDS011;26663;59.302;18.082;2024-01-15T02:45:02;0.90;;;0.90;;
17650;SDS011;26663;59.302;18.082;2024-01-15T02:48:07;0.97;;;0.97;;
17650;SDS011;26663;59.302;18.082;2024-01-15T02:51:11;1.03;;;1.03;;
17650;SDS011;26663;59.302;18.082;2024-01-15T02:54:16;1.10;;;1.00;;
17650;SDS011;26663;59.302;18.082;2024-01-15T02:57:20;1.10;;;1.10;;
17650;SDS011;26663;59.302;18.082;2024-01-15T03:00:24;0.93;;;0.93;;
17650;SDS011;26663;59.302;18.082;2024-01-15T03:03:28;0.97;;;0.97;;
17650;SDS011;26663;59.302;18.082;2024-01-15T03:06:32;0.93;;;0.93;;
17650;SDS011;26663;59.302;18.082;2024-01-15T03:09:38;1.00;;;1.00;;
17650;SDS011;26663;59.302;18.082;2024-01-15T03:12:42;0.80;;;0.80;;
17650;SDS011;26663;59.302;18.082;2024-01-15T03:15:46;1.10;;;1.10;;
17650;SDS011;26663;59.302;18.082;2024-01-15T03:18:50;2.00;;;0.90;;
17650;SDS011;26663;59.302;18.082;2024-01-15T03:21:54;3.83;;;1.23;;
17650;SDS011;26663;59.302;18.082;2024-01-15T03:25:00;1.00;;;1.00;;
17650;SDS011;26663;59.302;18.082;2024-01-15T03:28:04;1.90;;;1.00;;
17650;SDS011;26663;59.302;18.082;2024-01-15T03:31:08;1.70;;;0.90;;
17650;SDS011;26663;59.302;18.082;2024-01-15T03:34:12;1.13;;;1.13;;
17650;SDS011;26663;59.302;18.082;2024-01-15T03:37:16;1.10;;;0.90;;
17650;SDS011;26663;59.302;18.082;2024-01-15T03:40:23;0.97;;;0.97;;
17650;SDS011;26663;59.302;18.082;2024-01-15T03:43:27;0.90;;;0.90;;
17650;SDS011;26663;59.302;18.082;2024-01-15T03:46:31;1.77;;;1.00;;
17650;SDS011;26663;59.302;18.082;2024-01-15T03:49:35;1.57;;;1.43;;
17650;SDS011;26663;59.302;18.082;2024-01-15T03:52:39;0.93;;;0.93;;
17650;SDS011;26663;59.302;18.082;2024-01-15T03:55:45;0.93;;;0.93;;
17650;SDS011;26663;59.302;18.082;2024-01-15T03:58:49;1.10;;;1.10;;
17650;SDS011;26663;59.302;18.082;2024-01-15T04:01:53;1.43;;;1.10;;
17650;SDS011;26663;59.302;18.082;2024-01-15T04:04:57;1.10;;;1.10;;
17650;SDS011;26663;59.302;18.082;2024-01-15T04:08:01;1.20;;;1.17;;
17650;SDS011;26663;59.302;18.082;2024-01-15T04:11:06;0.90;;;0.90;;
17650;SDS011;26663;59.302;18.082;2024-01-15T04:14:10;1.10;;;1.10;;
17650;SDS011;26663;59.302;18.082;2024-01-15T04:17:14;1.17;;;1.17;;
17650;SDS011;26663;59.302;18.082;2024-01-15T04:20:18;1.10;;;1.10;;
17650;SDS011;26663;59.302;18.082;2024-01-15T04:23:26;1.13;;;1.13;;
17650;SDS011;26663;59.302;18.082;2024-01-15T04:26:32;1.40;;;1.30;;
17650;SDS011;26663;59.302;18.082;2024-01-15T04:29:37;1.30;;;1.30;;
17650;SDS011;26663;59.302;18.082;2024-01-15T04:32:42;2.23;;;1.47;;
17650;SDS011;26663;59.302;18.082;2024-01-15T04:35:46;1.37;;;1.30;;
17650;SDS011;26663;59.302;18.082;2024-01-15T04:38:50;6.43;;;1.20;;
17650;SDS011;26663;59.302;18.082;2024-01-15T04:41:56;1.27;;;1.27;;
17650;SDS011;26663;59.302;18.082;2024-01-15T04:45:00;1.20;;;1.20;;
17650;SDS011;26663;59.302;18.082;2024-01-15T04:48:04;2.43;;;1.60;;
17650;SDS011;26663;59.302;18.082;2024-01-15T04:51:08;1.23;;;1.23;;
17650;SDS011;26663;59.302;18.082;2024-01-15T04:54:13;3.20;;;2.03;;
17650;SDS011;26663;59.302;18.082;2024-01-15T04:57:21;1.80;;;1.70;;
17650;SDS011;26663;59.302;18.082;2024-01-15T05:00:25;1.50;;;1.40;;
17650;SDS011;26663;59.302;18.082;2024-01-15T05:03:29;11.10;;;1.57;;
17650;SDS011;26663;59.302;18.082;2024-01-15T05:06:33;1.40;;;1.40;;
17650;SDS011;26663;59.302;18.082;2024-01-15T05:09:37;2.20;;;2.00;;
17650;SDS011;26663;59.302;18.082;2024-01-15T05:12:43;3.53;;;1.80;;
17650;SDS011;26663;59.302;18.082;2024-01-15T05:15:47;1.40;;;1.40;;
17650;SDS011;26663;59.302;18.082;2024-01-15T05:18:51;1.47;;;1.37;;
17650;SDS011;26663;59.302;18.082;2024-01-15T05:21:55;4.47;;;1.57;;
17650;SDS011;26663;59.302;18.082;2024-01-15T05:24:59;1.80;;;1.80;;
17650;SDS011;26663;59.302;18.082;2024-01-15T05:28:06;2.17;;;1.60;;
17650;SDS011;26663;59.302;18.082;2024-01-15T05:31:10;1.47;;;1.47;;
17650;SDS011;26663;59.302;18.082;2024-01-15T05:34:14;1.60;;;1.60;;
17650;SDS011;26663;59.302;18.082;2024-01-15T05:37:18;1.80;;;1.80;;
17650;SDS011;26663;59.302;18.082;2024-01-15T05:40:22;1.97;;;1.80;;
17650;SDS011;26663;59.302;18.082;2024-01-15T05:43:27;1.50;;;1.50;;
17650;SDS011;26663;59.302;18.082;2024-01-15T05:46:31;1.77;;;1.67;;
17650;SDS011;26663;59.302;18.082;2024-01-15T05:49:35;1.60;;;1.60;;
17650;SDS011;26663;59.302;18.082;2024-01-15T05:52:39;1.63;;;1.63;;
17650;SDS011;26663;59.302;18.082;2024-01-15T05:55:43;1.70;;;1.70;;
17650;SDS011;26663;59.302;18.082;2024-01-15T05:58:48;1.63;;;1.63;;
17650;SDS011;26663;59.302;18.082;2024-01-15T06:01:52;2.07;;;1.97;;
17650;SDS011;26663;59.302;18.082;2024-01-15T06:04:56;4.23;;;1.73;;
17650;SDS011;26663;59.302;18.082;2024-01-15T06:08:00;1.93;;;1.93;;
17650;SDS011;26663;59.302;18.082;2024-01-15T06:11:05;1.87;;;1.87;;
17650;SDS011;26663;59.302;18.082;2024-01-15T06:14:11;1.80;;;1.70;;
17650;SDS011;26663;59.302;18.082;2024-01-15T06:17:15;1.83;;;1.83;;
17650;SDS011;26663;59.302;18.082;2024-01-15T06:20:19;1.80;;;1.80;;
17650;SDS011;26663;59.302;18.082;2024-01-15T06:23:23;2.00;;;1.93;;
17650;SDS011;26663;59.302;18.082;2024-01-15T06:26:27;2.30;;;2.20;;
17650;SDS011;26663;59.302;18.082;2024-01-15T06:29:32;1.90;;;1.90;;
17650;SDS011;26663;59.302;18.082;2024-01-15T06:32:36;2.10;;;2.00;;
17650;SDS011;26663;59.302;18.082;2024-01-15T06:35:40;3.53;;;2.43;;
17650;SDS011;26663;59.302;18.082;2024-01-15T06:38:44;2.97;;;2.00;;
17650;SDS011;26663;59.302;18.082;2024-01-15T06:41:48;2.10;;;2.00;;
17650;SDS011;26663;59.302;18.082;2024-01-15T06:44:54;2.47;;;2.07;;
17650;SDS011;26663;59.302;18.082;2024-01-15T06:47:57;3.80;;;2.07;;
17650;SDS011;26663;59.302;18.082;2024-01-15T06:51:02;2.90;;;2.47;;
17650;SDS011;26663;59.302;18.082;2024-01-15T06:54:06;2.30;;;2.27;;
17650;SDS011;26663;59.302;18.082;2024-01-15T06:57:10;4.23;;;2.50;;
17650;SDS011;26663;59.302;18.082;2024-01-15T07:00:16;2.33;;;2.23;;
17650;SDS011;26663;59.302;18.082;2024-01-15T07:03:22;2.60;;;2.50;;
17650;SDS011;26663;59.302;18.082;2024-01-15T07:06:27;2.40;;;2.30;;
17650;SDS011;26663;59.302;18.082;2024-01-15T07:09:31;2.30;;;2.20;;
17650;SDS011;26663;59.302;18.082;2024-01-15T07:12:35;2.90;;;2.70;;
17650;SDS011;26663;59.302;18.082;2024-01-15T07:15:41;2.53;;;2.43;;
17650;SDS011;26663;59.302;18.082;2024-01-15T07:18:45;2.60;;;2.40;;
17650;SDS011;26663;59.302;18.082;2024-01-15T07:21:49;3.03;;;2.30;;
17650;SDS011;26663;59.302;18.082;2024-01-15T07:24:57;3.50;;;2.17;;
17650;SDS011;26663;59.302;18.082;2024-01-15T07:28:01;2.53;;;2.50;;
17650;SDS011;26663;59.302;18.082;2024-01-15T07:31:07;1.97;;;1.97;;
17650;SDS011;26663;59.302;18.082;2024-01-15T07:34:12;2.00;;;1.90;;
17650;SDS011;26663;59.302;18.082;2024-01-15T07:37:16;2.00;;;1.90;;
17650;SDS011;26663;59.302;18.082;2024-01-15T07:40:20;2.00;;;2.00;;
17650;SDS011;26663;59.302;18.082;2024-01-15T07:43:24;1.90;;;1.83;;
17650;SDS011;26663;59.302;18.082;2024-01-15T07:46:31;1.73;;;1.63;;
17650;SDS011;26663;59.302;18.082;2024-01-15T07:49:35;2.00;;;1.90;;
17650;SDS011;26663;59.302;18.082;2024-01-15T07:52:40;1.63;;;1.60;;
17650;SDS011;26663;59.302;18.082;2024-01-15T07:55:44;1.80;;;1.60;;
17650;SDS011;26663;59.302;18.082;2024-01-15T07:58:48;2.10;;;1.37;;
17650;SDS011;26663;59.302;18.082;2024-01-15T08:01:53;1.70;;;1.50;;
17650;SDS011;26663;59.302;18.082;2024-01-15T08:04:57;2.13;;;1.23;;
17650;SDS011;26663;59.302;18.082;2024-01-15T08:08:01;1.30;;;1.30;;
17650;SDS011;26663;59.302;18.082;2024-01-15T08:11:06;2.27;;;1.20;;
17650;SDS011;26663;59.302;18.082;2024-01-15T08:14:10;1.37;;;1.20;;
17650;SDS011;26663;59.302;18.082;2024-01-15T08:17:16;1.27;;;1.13;;
17650;SDS011;26663;59.302;18.082;2024-01-15T08:20:20;1.20;;;1.20;;
17650;SDS011;26663;59.302;18.082;2024-01-15T08:23:24;1.10;;;1.10;;
17650;SDS011;26663;59.302;18.082;2024-01-15T08:26:30;4.13;;;1.43;;
17650;SDS011;26663;59.302;18.082;2024-01-15T08:29:34;1.90;;;1.20;;
17650;SDS011;26663;59.302;18.082;2024-01-15T08:32:39;0.90;;;0.90;;
17650;SDS011;26663;59.302;18.082;2024-01-15T08:35:45;1.90;;;1.10;;
17650;SDS011;26663;59.302;18.082;2024-01-15T08:38:49;1.20;;;1.20;;
17650;SDS011;26663;59.302;18.082;2024-01-15T08:41:52;2.93;;;1.33;;
17650;SDS011;26663;59.302;18.082;2024-01-15T08:44:56;0.97;;;0.97;;
17650;SDS011;26663;59.302;18.082;2024-01-15T08:48:02;1.10;;;1.10;;
17650;SDS011;26663;59.302;18.082;2024-01-15T08:51:06;0.80;;;0.80;;
17650;SDS011;26663;59.302;18.082;2024-01-15T08:54:11;1.00;;;1.00;;
17650;SDS011;26663;59.302;18.082;2024-01-15T08:57:15;1.30;;;1.20;;
17650;SDS011;26663;59.302;18.082;2024-01-15T09:00:19;1.07;;;1.07;;
17650;SDS011;26663;59.302;18.082;2024-01-15T09:03:24;2.37;;;1.20;;
17650;SDS011;26663;59.302;18.082;2024-01-15T09:06:29;1.10;;;1.10;;
17650;SDS011;26663;59.302;18.082;2024-01-15T09:09:33;2.30;;;1.10;;
17650;SDS011;26663;59.302;18.082;2024-01-15T09:12:37;1.50;;;1.07;;
17650;SDS011;26663;59.302;18.082;2024-01-15T09:15:42;1.30;;;1.30;;
17650;SDS011;26663;59.302;18.082;2024-01-15T09:18:47;1.00;;;1.00;;
17650;SDS011;26663;59.302;18.082;2024-01-15T09:21:51;1.00;;;1.00;;
17650;SDS011;26663;59.302;18.082;2024-01-15T09:24:55;1.83;;;1.10;;
17650;SDS011;26663;59.302;18.082;2024-01-15T09:28:00;2.00;;;1.00;;
17650;SDS011;26663;59.302;18.082;2024-01-15T09:31:04;0.87;;;0.87;;
17650;SDS011;26663;59.302;18.082;2024-01-15T09:34:09;1.00;;;1.00;;
17650;SDS011;26663;59.302;18.082;2024-01-15T09:37:14;1.00;;;1.00;;
17650;SDS011;26663;59.302;18.082;2024-01-15T09:40:38;0.93;;;0.93;;
17650;SDS011;26663;59.302;18.082;2024-01-15T09:43:42;1.03;;;1.03;;
17650;SDS011;26663;59.302;18.082;2024-01-15T09:46:46;1.10;;;1.10;;
17650;SDS011;26663;59.302;18.082;2024-01-15T09:49:54;3.77;;;1.10;;
17650;SDS011;26663;59.302;18.082;2024-01-15T09:53:00;1.77;;;1.23;;
17650;SDS011;26663;59.302;18.082;2024-01-15T09:56:05;1.20;;;1.20;;
17650;SDS011;26663;59.302;18.082;2024-01-15T09:59:09;1.20;;;1.20;;
17650;SDS011;26663;59.302;18.082;2024-01-15T10:02:13;1.00;;;1.00;;
17650;SDS011;26663;59.302;18.082;2024-01-15T10:05:22;2.63;;;1.17;;
17650;SDS011;26663;59.302;18.082;2024-01-15T10:08:26;1.47;;;1.00;;
17650;SDS011;26663;59.302;18.082;2024-01-15T10:11:29;2.87;;;1.10;;
17650;SDS011;26663;59.302;18.082;2024-01-15T10:14:34;2.33;;;1.60;;
17650;SDS011;26663;59.302;18.082;2024-01-15T10:17:38;1.30;;;1.10;;
17650;SDS011;26663;59.302;18.082;2024-01-15T10:20:44;1.23;;;1.00;;
17650;SDS011;26663;59.302;18.082;2024-01-15T10:23:48;0.90;;;0.90;;
17650;SDS011;26663;59.302;18.082;2024-01-15T10:26:54;2.47;;;1.37;;
17650;SDS011;26663;59.302;18.082;2024-01-15T10:30:09;1.07;;;1.07;;
17650;SDS011;26663;59.302;18.082;2024-01-15T10:33:15;1.83;;;1.00;;
17650;SDS011;26663;59.302;18.082;2024-01-15T10:36:29;1.57;;;1.10;;
17650;SDS011;26663;59.302;18.082;2024-01-15T10:39:34;1.00;;;1.00;;
17650;SDS011;26663;59.302;18.082;2024-01-15T10:42:38;0.90;;;0.90;;
17650;SDS011;26663;59.302;18.082;2024-01-15T10:45:43;2.43;;;1.37;;
17650;SDS011;26663;59.302;18.082;2024-01-15T10:48:47;1.10;;;1.10;;
17650;SDS011;26663;59.302;18.082;2024-01-15T10:51:53;1.70;;;1.37;;
17650;SDS011;26663;59.302;18.082;2024-01-15T10:54:58;1.00;;;1.00;;
17650;SDS011;26663;59.302;18.082;2024-01-15T10:58:10;3.00;;;1.10;;
17650;SDS011;26663;59.302;18.082;2024-01-15T11:01:14;1.23;;;1.20;;
17650;SDS011;26663;59.302;18.082;2024-01-15T11:04:19;3.10;;;1.20;;
17650;SDS011;26663;59.302;18.082;2024-01-15T11:07:25;2.00;;;1.40;;
17650;SDS011;26663;59.302;18.082;2024-01-15T11:10:43;1.30;;;1.20;;
17650;SDS011;26663;59.302;18.082;2024-01-15T11:13:49;1.17;;;1.17;;
17650;SDS011;26663;59.302;18.082;2024-01-15T11:16:55;1.10;;;1.10;;
17650;SDS011;26663;59.302;18.082;2024-01-15T11:20:05;1.27;;;1.17;;
17650;SDS011;26663;59.302;18.082;2024-01-15T11:23:11;2.97;;;1.00;;
17650;SDS011;26663;59.302;18.082;2024-01-15T11:26:52;1.93;;;1.23;;
17650;SDS011;26663;59.302;18.082;2024-01-15T11:30:02;1.00;;;1.00;;
17650;SDS011;26663;59.302;18.082;2024-01-15T11:33:08;1.00;;;1.00;;
17650;SDS011;26663;59.302;18.082;2024-01-15T11:37:00;1.20;;;1.20;;
17650;SDS011;26663;59.302;18.082;2024-01-15T11:40:07;1.10;;;1.10;;
17650;SDS011;26663;59.302;18.082;2024-01-15T11:43:14;1.13;;;1.10;;
17650;SDS011;26663;59.302;18.082;2024-01-15T11:46:22;0.90;;;0.90;;
17650;SDS011;26663;59.302;18.082;2024-01-15T11:49:32;1.00;;;1.00;;
17650;SDS011;26663;59.302;18.082;2024-01-15T11:52:51;2.20;;;1.10;;
17650;SDS011;26663;59.302;18.082;2024-01-15T11:56:06;2.73;;;1.53;;
17650;SDS011;26663;59.302;18.082;2024-01-15T11:59:15;0.90;;;0.90;;
17650;SDS011;26663;59.302;18.082;2024-01-15T12:02:19;1.03;;;1.03;;
17650;SDS011;26663;59.302;18.082;2024-01-15T12:05:24;1.90;;;1.07;;
17650;SDS011;26663;59.302;18.082;2024-01-15T12:08:28;1.00;;;1.00;;
17650;SDS011;26663;59.302;18.082;2024-01-15T12:11:33;1.17;;;1.17;;
17650;SDS011;26663;59.302;18.082;2024-01-15T12:14:39;1.20;;;1.20;;
17650;SDS011;26663;59.302;18.082;2024-01-15T12:17:43;1.87;;;0.90;;
17650;SDS011;26663;59.302;18.082;2024-01-15T12:20:50;0.97;;;0.97;;
17650;SDS011;26663;59.302;18.082;2024-01-15T12:23:55;1.10;;;1.10;;
17650;SDS011;26663;59.302;18.082;2024-01-15T12:27:00;2.37;;;1.00;;
17650;SDS011;26663;59.302;18.082;2024-01-15T12:30:05;1.20;;;1.20;;
17650;SDS011;26663;59.302;18.082;2024-01-15T12:33:10;1.73;;;1.10;;
17650;SDS011;26663;59.302;18.082;2024-01-15T12:36:14;1.00;;;1.00;;
17650;SDS011;26663;59.302;18.082;2024-01-15T12:39:24;1.10;;;1.10;;
17650;SDS011;26663;59.302;18.082;2024-01-15T12:42:30;1.20;;;1.00;;
17650;SDS011;26663;59.302;18.082;2024-01-15T12:45:34;2.20;;;1.10;;
17650;SDS011;26663;59.302;18.082;2024-01-15T12:48:40;3.10;;;1.00;;
17650;SDS011;26663;59.302;18.082;2024-01-15T12:51:51;1.03;;;1.03;;
17650;SDS011;26663;59.302;18.082;2024-01-15T12:54:56;2.87;;;1.10;;
17650;SDS011;26663;59.302;18.082;2024-01-15T12:58:01;1.23;;;0.90;;
17650;SDS011;26663;59.302;18.082;2024-01-15T13:01:06;1.40;;;1.40;;
17650;SDS011;26663;59.302;18.082;2024-01-15T13:04:10;1.00;;;1.00;;
17650;SDS011;26663;59.302;18.082;2024-01-15T13:07:14;1.00;;;1.00;;
17650;SDS011;26663;59.302;18.082;2024-01-15T13:10:19;1.00;;;1.00;;
17650;SDS011;26663;59.302;18.082;2024-01-15T13:13:28;1.50;;;1.27;;
17650;SDS011;26663;59.302;18.082;2024-01-15T13:16:32;1.50;;;1.00;;
17650;SDS011;26663;59.302;18.082;2024-01-15T13:19:36;2.30;;;1.13;;
17650;SDS011;26663;59.302;18.082;2024-01-15T13:22:41;1.50;;;1.00;;
17650;SDS011;26663;59.302;18.082;2024-01-15T13:25:47;0.90;;;0.90;;
17650;SDS011;26663;59.302;18.082;2024-01-15T13:28:52;1.17;;;1.10;;
17650;SDS011;26663;59.302;18.082;2024-01-15T13:31:57;1.00;;;1.00;;
17650;SDS011;26663;59.302;18.082;2024-01-15T13:35:01;1.23;;;1.10;;
17650;SDS011;26663;59.302;18.082;2024-01-15T13:38:07;1.00;;;1.00;;
17650;SDS011;26663;59.302;18.082;2024-01-15T13:41:14;1.07;;;1.07;;
17650;SDS011;26663;59.302;18.082;2024-01-15T13:44:27;1.40;;;1.40;;
17650;SDS011;26663;59.302;18.082;2024-01-15T13:47:31;2.20;;;1.23;;
17650;SDS011;26663;59.302;18.082;2024-01-15T13:50:35;2.63;;;0.93;;
17650;SDS011;26663;59.302;18.082;2024-01-15T13:53:39;1.30;;;1.20;;
17650;SDS011;26663;59.302;18.082;2024-01-15T13:56:43;1.10;;;1.10;;
17650;SDS011;26663;59.302;18.082;2024-01-15T13:59:50;1.10;;;1.10;;
17650;SDS011;26663;59.302;18.082;2024-01-15T14:02:54;2.63;;;1.23;;
17650;SDS011;26663;59.302;18.082;2024-01-15T14:05:59;2.33;;;1.20;;
17650;SDS011;26663;59.302;18.082;2024-01-15T14:09:05;1.30;;;1.30;;
17650;SDS011;26663;59.302;18.082;2024-01-15T14:12:11;1.27;;;1.27;;
17650;SDS011;26663;59.302;18.082;2024-01-15T14:15:17;2.67;;;1.10;;
17650;SDS011;26663;59.302;18.082;2024-01-15T14:18:23;1.20;;;1.20;;
17650;SDS011;26663;59.302;18.082;2024-01-15T14:21:27;2.67;;;1.20;;
17650;SDS011;26663;59.302;18.082;2024-01-15T14:24:31;1.30;;;1.30;;
17650;SDS011;26663;59.302;18.082;2024-01-15T14:27:35;3.17;;;1.30;;
17650;SDS011;26663;59.302;18.082;2024-01-15T14:30:41;1.10;;;1.10;;
17650;SDS011;26663;59.302;18.082;2024-01-15T14:33:45;1.00;;;1.00;;
17650;SDS011;26663;59.302;18.082;2024-01-15T14:36:49;1.20;;;1.20;;
17650;SDS011;26663;59.302;18.082;2024-01-15T14:39:56;1.27;;;1.20;;
17650;SDS011;26663;59.302;18.082;2024-01-15T14:43:00;1.20;;;1.20;;
17650;SDS011;26663;59.302;18.082;2024-01-15T14:46:06;3.00;;;1.20;;
17650;SDS011;26663;59.302;18.082;2024-01-15T14:49:10;1.37;;;1.37;;
17650;SDS011;26663;59.302;18.082;2024-01-15T14:52:14;1.70;;;1.40;;
17650;SDS011;26663;59.302;18.082;2024-01-15T14:55:18;5.17;;;1.30;;
17650;SDS011;26663;59.302;18.082;2024-01-15T14:58:22;1.30;;;1.30;;
17650;SDS011;26663;59.302;18.082;2024-01-15T15:01:28;2.23;;;1.20;;
17650;SDS011;26663;59.302;18.082;2024-01-15T15:04:33;2.47;;;1.30;;
17650;SDS011;26663;59.302;18.082;2024-01-15T15:07:37;1.27;;;1.17;;
17650;SDS011;26663;59.302;18.082;2024-01-15T15:10:42;1.03;;;1.03;;
17650;SDS011;26663;59.302;18.082;2024-01-15T15:13:46;2.00;;;1.00;;
17650;SDS011;26663;59.302;18.082;2024-01-15T15:16:51;1.13;;;1.13;;
17650;SDS011;26663;59.302;18.082;2024-01-15T15:19:55;1.50;;;1.40;;
17650;SDS011;26663;59.302;18.082;2024-01-15T15:22:59;1.00;;;1.00;;
17650;SDS011;26663;59.302;18.082;2024-01-15T15:26:03;1.23;;;1.13;;
17650;SDS011;26663;59.302;18.082;2024-01-15T15:29:08;1.80;;;1.13;;
17650;SDS011;26663;59.302;18.082;2024-01-15T15:32:13;1.00;;;1.00;;
17650;SDS011;26663;59.302;18.082;2024-01-15T15:35:17;1.03;;;1.03;;
17650;SDS011;26663;59.302;18.082;2024-01-15T15:38:22;1.13;;;1.10;;
17650;SDS011;26663;59.302;18.082;2024-01-15T15:41:26;1.20;;;1.20;;
17650;SDS011;26663;59.302;18.082;2024-01-15T15:44:30;1.20;;;1.20;;
17650;SDS011;26663;59.302;18.082;2024-01-15T15:47:35;2.20;;;1.60;;
17650;SDS011;26663;59.302;18.082;2024-01-15T15:50:39;1.47;;;1.37;;
17650;SDS011;26663;59.302;18.082;2024-01-15T15:53:43;1.23;;;1.23;;
17650;SDS011;26663;59.302;18.082;2024-01-15T15:56:47;1.47;;;1.33;;
17650;SDS011;26663;59.302;18.082;2024-01-15T15:59:54;1.40;;;1.30;;
17650;SDS011;26663;59.302;18.082;2024-01-15T16:03:01;1.10;;;1.10;;
17650;SDS011;26663;59.302;18.082;2024-01-15T16:06:05;1.30;;;1.20;;
17650;SDS011;26663;59.302;18.082;2024-01-15T16:09:08;1.50;;;1.40;;
17650;SDS011;26663;59.302;18.082;2024-01-15T16:12:13;3.70;;;1.33;;
17650;SDS011;26663;59.302;18.082;2024-01-15T16:15:18;1.10;;;1.10;;
17650;SDS011;26663;59.302;18.082;2024-01-15T16:18:24;3.60;;;1.00;;
17650;SDS011;26663;59.302;18.082;2024-01-15T16:21:48;1.37;;;1.27;;
17650;SDS011;26663;59.302;18.082;2024-01-15T16:25:12;1.13;;;1.10;;
17650;SDS011;26663;59.302;18.082;2024-01-15T16:28:17;1.27;;;1.27;;
17650;SDS011;26663;59.302;18.082;2024-01-15T16:31:21;4.63;;;1.40;;
17650;SDS011;26663;59.302;18.082;2024-01-15T16:34:26;1.63;;;1.20;;
17650;SDS011;26663;59.302;18.082;2024-01-15T16:37:30;1.40;;;1.40;;
17650;SDS011;26663;59.302;18.082;2024-01-15T16:40:34;1.30;;;1.30;;
17650;SDS011;26663;59.302;18.082;2024-01-15T16:43:41;1.00;;;1.00;;
17650;SDS011;26663;59.302;18.082;2024-01-15T16:46:45;4.00;;;1.30;;
17650;SDS011;26663;59.302;18.082;2024-01-15T16:49:50;1.00;;;1.00;;
17650;SDS011;26663;59.302;18.082;2024-01-15T16:52:56;1.10;;;1.10;;
17650;SDS011;26663;59.302;18.082;2024-01-15T16:56:00;1.20;;;1.20;;
17650;SDS011;26663;59.302;18.082;2024-01-15T16:59:04;1.13;;;1.10;;
17650;SDS011;26663;59.302;18.082;2024-01-15T17:02:09;1.03;;;1.03;;
17650;SDS011;26663;59.302;18.082;2024-01-15T17:05:14;5.93;;;2.77;;
17650;SDS011;26663;59.302;18.082;2024-01-15T17:08:19;1.00;;;1.00;;
17650;SDS011;26663;59.302;18.082;2024-01-15T17:11:23;1.07;;;1.07;;
17650;SDS011;26663;59.302;18.082;2024-01-15T17:14:27;2.10;;;1.40;;
17650;SDS011;26663;59.302;18.082;2024-01-15T17:17:31;1.10;;;1.10;;
17650;SDS011;26663;59.302;18.082;2024-01-15T17:20:37;1.93;;;1.30;;
17650;SDS011;26663;59.302;18.082;2024-01-15T17:23:43;1.07;;;1.07;;
17650;SDS011;26663;59.302;18.082;2024-01-15T17:26:49;1.73;;;1.23;;
17650;SDS011;26663;59.302;18.082;2024-01-15T17:29:53;3.17;;;1.30;;
17650;SDS011;26663;59.302;18.082;2024-01-15T17:32:58;2.33;;;1.20;;
17650;SDS011;26663;59.302;18.082;2024-01-15T17:36:03;4.50;;;1.37;;
17650;SDS011;26663;59.302;18.082;2024-01-15T17:39:08;1.20;;;1.00;;
17650;SDS011;26663;59.302;18.082;2024-01-15T17:42:12;2.03;;;1.13;;
17650;SDS011;26663;59.302;18.082;2024-01-15T17:45:16;1.20;;;1.20;;
17650;SDS011;26663;59.302;18.082;2024-01-15T17:48:21;1.50;;;1.50;;
17650;SDS011;26663;59.302;18.082;2024-01-15T17:51:27;1.10;;;1.10;;
17650;SDS011;26663;59.302;18.082;2024-01-15T17:54:31;1.00;;;1.00;;
17650;SDS011;26663;59.302;18.082;2024-01-15T17:57:35;3.93;;;1.13;;
17650;SDS011;26663;59.302;18.082;2024-01-15T18:00:38;1.27;;;1.20;;
17650;SDS011;26663;59.302;18.082;2024-01-15T18:03:43;1.37;;;1.37;;
17650;SDS011;26663;59.302;18.082;2024-01-15T18:06:48;2.23;;;1.63;;
17650;SDS011;26663;59.302;18.082;2024-01-15T18:09:52;1.40;;;1.30;;
17650;SDS011;26663;59.302;18.082;2024-01-15T18:12:57;1.90;;;1.83;;
17650;SDS011;26663;59.302;18.082;2024-01-15T18:16:02;2.73;;;1.50;;
17650;SDS011;26663;59.302;18.082;2024-01-15T18:19:06;2.13;;;1.90;;